• Join FlightAware (Why Join?)
  • Login
  • US Flag 
01:21AM EDT


 

Airport Tracker/Info


-or-


 

Live Flight TrackerFlight Track Log ✈ N591ML ✈ 15-May-2013 ✈ CYUL - KICT

Flight Track Log - Related Links

Times and Time Zones

All times are in EDT time to prevent confusion due to time zone crossing. See the N591ML flight status page for this flight to view local times or setup timezone preferences in your user account.

Time Position Orientation Groundspeed Altitude Reporting Facility
EDT Latitude Longitude Course Direction KTS MPH feet Rate Location/Type
11:06AM 45.4500 -73.7167 360° North 10 12 100  Level Montreal Center
11:07AM 45.4500 -73.7167 360° North 30 35 100  Level Montreal Center
11:08AM 45.4500 -73.7167 360° North 20 23 100  Level Montreal Center
11:09AM 45.4667 -73.7167 360° North 150 173 200 1,200 Climbing Montreal Center
11:10AM 45.5000 -73.6500 54° Northeast 190 219 2,600 2,220 Climbing Montreal Center
11:11AM 45.5500 -73.6000 35° Northeast 270 311 4,700 2,700 Climbing Montreal Center
11:12AM 45.6000 -73.6500 325° Northwest 270 311 8,100 3,000 Climbing Montreal Center
11:13AM 45.5833 -73.7333 254° West 270 311 10,700 2,460 Climbing Montreal Center
11:14AM 45.5833 -73.8667 270° West 280 322 13,100 2,400 Climbing Montreal Center
11:15AM 45.5500 -73.9500 240° Southwest 280 322 15,500 2,100 Climbing Montreal Center
11:16AM 45.5667 -74.0833 280° West 280 322 17,400 1,800 Climbing Montreal Center
11:17AM 45.5500 -74.1667 254° West 280 322 19,200 1,680 Climbing Montreal Center
11:18AM 45.5333 -74.3000 260° West 300 345 20,800 1,620 Climbing Montreal Center
11:19AM 45.5167 -74.4167 259° West 300 345 22,500 1,680 Climbing Montreal Center
11:20AM 45.4833 -74.5333 248° West 300 345 24,200 1,260 Climbing Montreal Center
11:21AM 45.4667 -74.6500 259° West 300 345 25,100 960 Climbing Montreal Center
11:22AM 45.4500 -74.8000 261° West 320 368 26,200 1,080 Climbing Montreal Center
11:23AM 45.4167 -74.9167 248° West 330 380 27,300 1,140 Climbing Montreal Center
11:24AM 45.4000 -75.0333 259° West 330 380 28,500 1,140 Climbing Montreal Center
11:25AM 45.3667 -75.1500 248° West 320 368 29,600 900 Climbing Montreal Center
11:26AM 45.3333 -75.2833 250° West 330 380 30,400 720 Climbing Montreal Center
11:27AM 45.3167 -75.4000 259° West 330 380 31,100 600 Climbing Montreal Center
11:28AM 45.2833 -75.5333 250° West 330 380 31,700 540 Climbing Montreal Center
11:29AM 45.2500 -75.6667 250° West 340 391 32,200 480 Climbing Montreal Center
11:30AM 45.2167 -75.7833 248° West 350 403 32,700 480 Climbing Montreal Center
11:31AM 45.1833 -75.9167 251° West 350 403 33,200 480 Climbing Montreal Center
11:32AM 45.1667 -76.0333 259° West 350 403 33,700 600 Climbing Montreal Center
11:33AM 45.1333 -76.1833 253° West 340 391 34,500 600 Climbing Montreal Center
11:34AM 45.1000 -76.3000 248° West 340 391 35,000 420 Climbing Montreal Center
11:35AM 45.0667 -76.4167 248° West 340 391 35,400 360 Climbing Montreal Center
11:35AM 45.0500 -76.4667 245° Southwest 340 391 35,600 360 Climbing Toronto Center
11:36AM 45.0167 -76.5833 248° West 330 380 36,000 240 Climbing Toronto Center
11:37AM 45.0167 -76.6833 270° West 330 380 36,000  Level Montreal Center
11:38AM 44.9833 -76.8167 251° West 340 391 36,000  Level Montreal Center
11:39AM 44.9500 -76.9333 248° West 350 403 36,000  Level Montreal Center
11:39AM 44.9333 -76.9667 235° Southwest 350 403 36,000  Level Toronto Center
11:40AM 44.9000 -77.1167 253° West 360 414 36,000  Level Toronto Center
11:41AM 44.8667 -77.2333 248° West 360 414 36,000  Level Toronto Center
11:42AM 44.8500 -77.3333 257° West 360 414 36,000  Level Montreal Center
11:43AM 44.8333 -77.4833 261° West 370 426 36,000  Level Montreal Center
11:44AM 44.8000 -77.6167 251° West 370 426 36,000  Level Montreal Center
11:44AM 44.7667 -77.6333 200° South 370 426 36,000  Level Toronto Center
11:45AM 44.7333 -77.7833 253° West 360 414 36,000  Level Toronto Center
11:46AM 44.7167 -77.8833 257° West 360 414 36,000  Level Montreal Center
11:47AM 44.6833 -78.0000 248° West 360 414 36,000  Level Montreal Center
11:48AM 44.6500 -78.1500 253° West 350 403 36,000  Level Montreal Center
11:48AM 44.6333 -78.1833 235° Southwest 360 414 36,000  Level Toronto Center
11:49AM 44.6000 -78.3000 248° West 350 403 36,000  Level Toronto Center
11:50AM 44.6000 -78.3833 270° West 350 403 36,000  Level Montreal Center
11:50AM 44.5667 -78.4333 227° Southwest 350 403 36,000  Level Toronto Center
11:51AM 44.5500 -78.5500 259° West 350 403 36,000  Level Toronto Center
11:52AM 44.5167 -78.7000 253° West 350 403 36,000  Level Toronto Center
11:53AM 44.4833 -78.8167 248° West 350 403 36,000  Level Toronto Center
11:54AM 44.4333 -78.9500 242° Southwest 350 403 36,000  Level Toronto Center
11:55AM 44.4000 -79.0667 248° West 350 403 36,000  Level Toronto Center
11:56AM 44.3667 -79.2167 253° West 350 403 36,000  Level Toronto Center
11:57AM 44.3333 -79.3333 248° West 350 403 36,000  Level Toronto Center
11:58AM 44.3000 -79.4667 251° West 350 403 36,000  Level Toronto Center
11:59AM 44.2667 -79.5833 248° West 350 403 36,000  Level Toronto Center
12:00PM 44.2333 -79.7333 253° West 350 403 36,000  Level Toronto Center
12:01PM 44.2000 -79.8500 248° West 350 403 36,000  Level Toronto Center
12:02PM 44.1667 -79.9833 251° West 360 414 36,000  Level Toronto Center
12:03PM 44.1333 -80.1000 248° West 350 403 36,000  Level Toronto Center
12:04PM 44.1000 -80.2333 251° West 350 403 36,000  Level Toronto Center
12:05PM 44.0667 -80.3500 248° West 350 403 36,000  Level Toronto Center
12:06PM 44.0333 -80.4667 248° West 350 403 36,000  Level Toronto Center
12:07PM 43.9833 -80.6000 243° Southwest 350 403 36,000  Level Toronto Center
12:08PM 43.9500 -80.7167 248° West 350 403 36,000  Level Toronto Center
12:09PM 43.9000 -80.8667 245° Southwest 350 403 36,000  Level Toronto Center
12:10PM 43.8667 -80.9667 245° Southwest 350 403 36,000  Level Toronto Center
12:11PM 43.8333 -81.1167 253° West 350 403 36,000  Level Toronto Center
12:12PM 43.8000 -81.2333 248° West 350 403 36,000  Level Toronto Center
12:13PM 43.7667 -81.3667 251° West 350 403 36,000  Level Toronto Center
12:14PM 43.7333 -81.4833 248° West 360 414 36,000  Level Toronto Center
12:15PM 43.7000 -81.6167 251° West 360 414 36,000  Level Toronto Center
12:16PM 43.6500 -81.7333 239° Southwest 360 414 36,000  Level Toronto Center
12:17PM 43.6000 -81.8667 243° Southwest 360 414 36,000  Level Toronto Center
12:18PM 43.5333 -81.9833 232° Southwest 370 426 36,000  Level Toronto Center
12:19PM 43.4833 -82.1000 239° Southwest 370 426 36,000  Level Toronto Center
12:20PM 43.4614 -82.2247 256° West 372 428 36,000  Level Cleveland Center
12:21PM 43.4117 -82.3464 241° Southwest 372 428 36,000  Level Cleveland Center
12:22PM 43.3678 -82.4736 245° Southwest 372 428 36,000  Level Cleveland Center
12:23PM 43.3325 -82.6011 249° West 362 417 36,000  Level Cleveland Center
12:24PM 43.2947 -82.7253 247° West 362 417 36,000  Level Cleveland Center
12:25PM 43.2611 -82.8553 250° West 362 417 36,000  Level Cleveland Center
12:26PM 43.2231 -82.9819 248° West 362 417 36,000  Level Cleveland Center
12:27PM 43.1869 -83.1144 250° West 367 422 36,000  Level Cleveland Center
12:28PM 43.1506 -83.2439 249° West 367 422 36,000  Level Cleveland Center
12:29PM 43.1122 -83.3731 248° West 367 422 36,000  Level Cleveland Center
12:30PM 43.0756 -83.5022 249° West 367 422 36,000  Level Cleveland Center
12:31PM 43.0367 -83.6369 248° West 372 428 36,000  Level Cleveland Center
12:32PM 42.9978 -83.7683 248° West 372 428 36,000  Level Cleveland Center
12:33PM 42.9586 -83.8997 248° West 372 428 36,000 120 Level Cleveland Center
12:34PM 42.9217 -84.0253 248° West 372 428 36,300 420 Climbing Cleveland Center
12:36PM 42.8333 -84.3000 246° West 360 414 37,400 480 Climbing Toronto Center
12:37PM 42.8325 -84.3297 268° West 354 407 37,500 360 Climbing Chicago Center
12:37PM 42.8000 -84.4000 238° Southwest 340 391 37,800 360 Climbing Toronto Center
12:38PM 42.7969 -84.4481 265° West 342 394 37,900 120 Climbing Chicago Center
12:39PM 42.7608 -84.5689 248° West 344 396 38,000  Climbing Chicago Center
12:40PM 42.7239 -84.6883 247° West 344 396 38,000  Level Chicago Center
12:41PM 42.6789 -84.8372 248° West 354 407 38,000  Level Chicago Center
12:42PM 42.6411 -84.9600 247° West 353 406 38,000  Level Chicago Center
12:43PM 42.6031 -85.0867 248° West 358 412 38,000  Level Chicago Center
12:44PM 42.5633 -85.2139 247° West 363 418 38,000  Level Chicago Center
12:45PM 42.5239 -85.3408 247° West 365 420 38,000  Level Chicago Center
12:46PM 42.4831 -85.4703 247° West 370 426 38,000  Level Chicago Center
12:47PM 42.4425 -85.6011 247° West 374 430 38,000  Level Chicago Center
12:48PM 42.3933 -85.7561 247° West 376 433 38,000  Level Chicago Center
12:49PM 42.3522 -85.8875 247° West 379 436 38,000  Level Chicago Center
12:50PM 42.3100 -86.0183 246° West 378 435 38,000  Level Chicago Center
12:51PM 42.2661 -86.1569 247° West 375 432 38,000  Level Chicago Center
12:52PM 42.2247 -86.2878 247° West 379 436 38,000  Level Chicago Center
12:53PM 42.1822 -86.4161 246° West 378 435 38,000  Level Chicago Center
12:54PM 42.1411 -86.5453 247° West 377 434 38,000  Level Chicago Center
12:55PM 42.0939 -86.6892 246° West 376 433 38,000  Level Chicago Center
12:56PM 42.0531 -86.8175 247° West 375 432 38,000  Level Chicago Center
12:57PM 42.0114 -86.9472 247° West 378 435 38,000  Level Chicago Center
12:58PM 41.9686 -87.0750 246° West 376 433 38,000  Level Chicago Center
12:59PM 41.9172 -87.2294 246° West 378 435 38,000  Level Chicago Center
01:00PM 41.8744 -87.3581 246° West 378 435 38,000  Level Chicago Center
01:01PM 41.8303 -87.4844 245° Southwest 376 433 38,000  Level Chicago Center
01:02PM 41.7886 -87.6131 247° West 379 436 38,000  Level Chicago Center
01:03PM 41.7453 -87.7411 246° West 380 437 38,000  Level Chicago Center
01:04PM 41.6925 -87.8942 245° Southwest 382 440 38,000  Level Chicago Center
01:05PM 41.6497 -88.0208 246° West 380 437 38,000  Level Chicago Center
01:06PM 41.6061 -88.1469 245° Southwest 382 440 38,000  Level Chicago Center
01:07PM 41.5625 -88.2739 245° Southwest 384 442 38,000  Level Chicago Center
01:08PM 41.5131 -88.4283 247° West 384 442 38,000  Level Chicago Center
01:10PM 41.4742 -88.5592 248° West 384 442 38,000  Level Chicago Center
01:11PM 41.4342 -88.6914 248° West 387 445 38,000  Level Chicago Center
01:12PM 41.3947 -88.8222 248° West 385 443 38,000  Level Chicago Center
01:13PM 41.3542 -88.9536 248° West 387 445 38,000  Level Chicago Center
01:14PM 41.3061 -89.1111 248° West 385 443 38,000  Level Chicago Center
01:15PM 41.2725 -89.2228 248° West 389 448 38,000  Level Chicago Center
01:16PM 41.2244 -89.3808 248° West 385 443 38,000  Level Chicago Center
01:17PM 41.1839 -89.5142 248° West 389 448 38,000  Level Chicago Center
01:18PM 41.1425 -89.6464 247° West 391 450 38,000  Level Chicago Center
01:19PM 41.0997 -89.7772 247° West 391 450 38,000  Level Chicago Center
01:20PM 41.0569 -89.9086 247° West 391 450 38,000  Level Chicago Center
01:21PM 41.0047 -90.0667 246° West 394 453 38,000  Level Chicago Center
01:22PM 40.9622 -90.1936 246° West 396 456 38,000  Level Chicago Center
01:23PM 40.9178 -90.3328 247° West 399 459 38,000  Level Chicago Center
01:24PM 40.8742 -90.4664 247° West 397 457 38,000  Level Chicago Center
01:25PM 40.8283 -90.6003 246° West 401 461 38,000  Level Chicago Center
01:26PM 40.7722 -90.7628 246° West 405 466 38,000  Level Chicago Center
01:27PM 40.7269 -90.8975 246° West 404 465 38,000  Level Chicago Center
01:28PM 40.6800 -91.0333 246° West 408 470 38,000  Level Chicago Center
01:29PM 40.6347 -91.1694 246° West 408 470 38,000  Level Chicago Center
01:30PM 40.5828 -91.3186 245° Southwest 408 470 38,000  Level Chicago Center
01:31PM 40.5369 -91.4531 246° West 407 468 38,000  Level Chicago Center
01:32PM 40.4922 -91.5883 247° West 407 468 38,000  Level Chicago Center
01:33PM 40.4456 -91.7231 246° West 407 468 38,000  Level Chicago Center
01:34PM 40.3897 -91.8828 245° Southwest 406 467 38,000  Level Chicago Center
01:35PM 40.3797 -91.9092 244° Southwest 405 466 38,000  Level Kansas City Center
01:36PM 40.3314 -92.0419 245° Southwest 405 466 38,000  Level Kansas City Center
01:37PM 40.2831 -92.1747 245° Southwest 405 466 38,000  Level Kansas City Center
01:38PM 40.2356 -92.3100 245° Southwest 409 471 38,000  Level Kansas City Center
01:39PM 40.1761 -92.4697 244° Southwest 407 468 38,000  Level Kansas City Center
01:40PM 40.1322 -92.6014 246° West 409 471 38,000  Level Kansas City Center
01:41PM 40.0831 -92.7281 243° Southwest 407 468 38,000  Level Kansas City Center
01:42PM 40.0250 -92.8769 243° Southwest 413 475 38,000  Level Kansas City Center
01:43PM 39.9733 -93.0092 243° Southwest 411 473 38,000  Level Kansas City Center
01:44PM 39.9214 -93.1428 243° Southwest 415 478 38,000  Level Kansas City Center
01:45PM 39.8708 -93.2750 244° Southwest 413 475 38,000  Level Kansas City Center
01:46PM 39.8067 -93.4333 242° Southwest 414 476 38,000  Level Kansas City Center
01:47PM 39.7556 -93.5686 244° Southwest 417 480 38,000  Level Kansas City Center
01:48PM 39.7031 -93.6997 243° Southwest 413 475 38,000  Level Kansas City Center
01:49PM 39.6489 -93.8364 243° Southwest 413 475 38,000  Level Kansas City Center
01:50PM 39.5894 -93.9864 243° Southwest 419 482 38,000  Level Kansas City Center
01:51PM 39.5378 -94.1139 242° Southwest 416 479 38,000  Level Kansas City Center
01:52PM 39.4783 -94.2633 243° Southwest 417 480 38,000  Level Kansas City Center
01:53PM 39.4267 -94.3914 242° Southwest 418 481 38,000  Level Kansas City Center
01:54PM 39.3750 -94.5181 242° Southwest 416 479 38,000 -60 Level Kansas City Center
01:55PM 39.3147 -94.6661 242° Southwest 416 479 37,900 -300 Descending Kansas City Center
01:56PM 39.2608 -94.7897 241° Southwest 415 478 37,400 -540 Descending Kansas City Center
01:57PM 39.1950 -94.9281 238° Southwest 403 464 36,900 -540 Descending Kansas City Center
01:58PM 39.1389 -95.0433 238° Southwest 390 449 36,300 -1,140 Descending Kansas City Center
01:59PM 39.0706 -95.1897 239° Southwest 416 479 34,600 -1,500 Descending Kansas City Center
02:00PM 39.0069 -95.3200 238° Southwest 430 495 33,200 -1,200 Descending Kansas City Center
02:01PM 38.9478 -95.4450 239° Southwest 437 503 32,200 -1,020 Descending Kansas City Center
02:03PM 38.8767 -95.5928 238° Southwest 434 499 31,100 -1,080 Descending Kansas City Center
02:04PM 38.8158 -95.7183 238° Southwest 432 497 30,000 -1,380 Descending Kansas City Center
02:05PM 38.7467 -95.8628 238° Southwest 425 489 28,300 -1,680 Descending Kansas City Center
02:06PM 38.6886 -95.9794 238° Southwest 410 472 26,600 -1,800 Descending Kansas City Center
02:07PM 38.6231 -96.1128 238° Southwest 400 460 24,600 -1,260 Descending Kansas City Center
02:08PM 38.5694 -96.2239 238° Southwest 385 443 24,000 -420 Descending Kansas City Center
02:09PM 38.5083 -96.3472 238° Southwest 370 426 23,800 -900 Descending Kansas City Center
02:10PM 38.4561 -96.4533 238° Southwest 368 423 22,200 -1,560 Descending Kansas City Center
02:11PM 38.3986 -96.5672 237° Southwest 367 422 20,600 -1,500 Descending Kansas City Center
02:12PM 38.3472 -96.6711 238° Southwest 359 413 19,100 -1,620 Descending Kansas City Center
02:13PM 38.2869 -96.7883 237° Southwest 347 399 17,400 -1,680 Descending Kansas City Center
02:13PM 38.2714 -96.8203 238° Southwest 345 397 16,900 -1,320 Descending Kansas City Center
02:14PM 38.2436 -96.8767 238° Southwest 341 392 16,000 -1,500 Descending Kansas City Center
02:14PM 38.2208 -96.9217 237° Southwest 337 388 15,400 -1,800 Descending Kansas City Center
02:15PM 38.1750 -96.9878 229° Southwest 334 384 14,200 -1,800 Descending Kansas City Center
02:16PM 38.1053 -97.0514 216° Southwest 310 357 12,200 -1,860 Descending Kansas City Center
02:17PM 38.0244 -97.1236 215° Southwest 277 319 10,100 -1,680 Descending Kansas City Center
02:18PM 37.9686 -97.1750 216° Southwest 246 283 8,500 -1,500 Descending Kansas City Center
02:19PM 37.9272 -97.2122 215° Southwest 242 278 7,300 -1,440 Descending Kansas City Center
02:20PM 37.8586 -97.2747 216° Southwest 229 264 5,600 -1,260 Descending Kansas City Center
02:21PM 37.8125 -97.3164 216° Southwest 205 236 4,600 -1,080 Descending Kansas City Center
02:22PM 37.7728 -97.3511 215° Southwest 203 234 3,600 -840 Descending Kansas City Center
02:23PM 37.7344 -97.3836 214° Southwest 186 214 3,000 -660 Descending Kansas City Center
02:24PM 37.6989 -97.4003 200° South 118 136 2,300 -660 Descending Kansas City Center
02:25PM 37.6722 -97.4131 201° Southwest 127 146 1,700 -420 Descending Kansas City Center
02:26PM 37.6422 -97.4272 201° Southwest 125 144 1,500 -240 Descending Kansas City Center
02:28PM 37.6333 -97.4167 202° Southwest  Level FlightAware Approximate
02:35PM 37.6499 -97.4331 202° Southwest  Level Estimated
02:36PM 37.6499 -97.4331 202° Southwest  Level Estimated